Terminal Aerodrome Forecast
Issued by NWS Memphis, TN

Home | Current Version | Previous Version | Text Only | Print | Product List | Glossary On
Versions: 1 2 3 4 5 6 7 8 9 10 11 12 13 14 15 16 17 18 19 20
000
FTUS44 KMEG 191351 AAA
TAFJBR
TAF AMD
KJBR 191351Z 1914/2012 05004KT 6SM BR VCSH OVC006
     FM192200 VRB03KT P6SM BKN010
     FM200400 23003KT 3SM -DZ BR OVC004=

USA.gov is the U.S. government's official web portal to all federal, state and local government web resources and services.